Time;durP1;ratioP1;P1;durP2;ratioP2;P2;SDS_P1;SDS_P2;PMS_P1;PMS_P2;Temp;Humidity;BMP_temperature;BMP_pressure;BME280_temperature;BME280_humidity;BME280_pressure;Samples;Min_cycle;Max_cycle;Signal;HPM_P1;HPM_P2
2022/05/11 00:01:39;;;;;;;17.27;5.65;;;;;;;6.10;100.00;98623.13;5153736;27;20043;-63
2022/05/11 00:04:07;;;;;;;12.80;5.63;;;;;;;6.03;100.00;98625.66;5154015;27;20043;-63
2022/05/11 00:06:34;;;;;;;10.95;5.32;;;;;;;5.99;100.00;98638.34;5153779;27;20111;-63
2022/05/11 00:09:01;;;;;;;9.48;4.90;;;;;;;5.99;100.00;98684.59;5153861;27;20425;-63
2022/05/11 00:11:28;;;;;;;23.77;5.32;;;;;;;6.00;100.00;98688.13;5153787;27;20525;-63
2022/05/11 00:13:55;;;;;;;14.07;5.85;;;;;;;5.97;100.00;98707.88;5154028;27;20054;-62
2022/05/11 00:16:21;;;;;;;13.35;5.45;;;;;;;5.90;100.00;98738.38;5153537;27;20050;-63
2022/05/11 00:18:47;;;;;;;15.35;5.32;;;;;;;5.85;100.00;98758.41;5153668;27;20054;-63
2022/05/11 00:21:14;;;;;;;15.90;5.07;;;;;;;5.86;100.00;98789.13;5153434;27;20043;-63
2022/05/11 00:23:40;;;;;;;16.02;5.22;;;;;;;5.84;100.00;98813.97;5153436;27;20057;-62
2022/05/11 00:26:06;;;;;;;11.07;4.80;;;;;;;5.83;100.00;98836.06;5153787;27;20050;-62
2022/05/11 00:28:33;;;;;;;12.18;5.20;;;;;;;5.81;100.00;98844.56;5153252;27;20046;-62
2022/05/11 00:31:00;;;;;;;15.27;5.32;;;;;;;5.81;100.00;98844.56;5153764;27;20053;-62
2022/05/11 00:33:27;;;;;;;15.68;5.00;;;;;;;5.78;100.00;98834.38;5153167;27;20047;-63
2022/05/11 00:35:53;;;;;;;15.80;5.13;;;;;;;5.71;100.00;98827.94;5153444;27;20055;-62
2022/05/11 00:38:22;;;;;;;14.70;5.22;;;;;;;5.65;100.00;98849.91;5153345;27;20420;-63
2022/05/11 00:40:51;;;;;;;11.70;4.53;;;;;;;5.61;100.00;98857.16;5153157;27;20050;-63
2022/05/11 00:43:26;;;;;;;15.18;4.53;;;;;;;5.59;100.00;98881.16;5153426;27;20046;-62
2022/05/11 00:45:57;;;;;;;23.95;6.60;;;;;;;5.60;100.00;98901.81;5153172;27;20216;-63
2022/05/11 00:51:13;;;;;;;10.40;4.95;;;;;;;5.60;100.00;98903.72;5153111;27;20137;-62
2022/05/11 00:53:41;;;;;;;10.52;5.00;;;;;;;5.55;100.00;98904.72;5153286;27;20050;-63
2022/05/11 00:56:08;;;;;;;18.45;5.85;;;;;;;5.55;100.00;98922.97;5152953;27;20057;-62
2022/05/11 00:58:40;;;;;;;27.15;6.00;;;;;;;5.56;100.00;98928.06;5152888;27;20053;-62
2022/05/11 01:01:07;;;;;;;16.73;5.53;;;;;;;5.51;100.00;98950.03;5153117;27;20379;-62
2022/05/11 01:03:38;;;;;;;15.80;5.50;;;;;;;5.43;100.00;98973.47;5153058;27;20077;-62
2022/05/11 01:06:07;;;;;;;14.15;5.10;;;;;;;5.36;100.00;98999.59;5152864;27;20522;-63
2022/05/11 01:08:33;;;;;;;14.32;5.32;;;;;;;5.34;100.00;99023.63;5152837;27;20043;-62
2022/05/11 01:11:01;;;;;;;14.30;5.65;;;;;;;5.39;100.00;99037.78;5152956;27;20501;-62
2022/05/11 01:13:30;;;;;;;14.93;4.97;;;;;;;5.41;100.00;99038.25;5152684;27;20054;-62
2022/05/11 01:15:59;;;;;;;17.23;6.18;;;;;;;5.37;100.00;99039.28;5153337;27;20417;-62
2022/05/11 01:18:27;;;;;;;14.52;6.00;;;;;;;5.29;100.00;99031.97;5152378;27;20047;-63
2022/05/11 01:20:53;;;;;;;11.10;5.10;;;;;;;5.29;100.00;99059.16;5152539;27;20078;-64
2022/05/11 01:23:26;;;;;;;22.10;5.35;;;;;;;5.29;100.00;99056.44;5152761;27;20055;-63
2022/05/11 01:25:54;;;;;;;15.40;5.10;;;;;;;5.32;100.00;99025.88;5152438;27;20054;-62
2022/05/11 01:28:21;;;;;;;11.60;5.90;;;;;;;5.29;100.00;98999.34;5152637;27;20046;-62
2022/05/11 01:30:49;;;;;;;11.27;4.95;;;;;;;5.25;100.00;99001.94;5152454;27;20140;-62
2022/05/11 01:33:19;;;;;;;16.42;5.65;;;;;;;5.17;100.00;99009.06;5152620;27;20042;-62
2022/05/11 01:35:57;;;;;;;17.48;5.75;;;;;;;5.17;100.00;99019.13;5152371;27;20053;-62
2022/05/11 01:38:40;;;;;;;12.98;4.90;;;;;;;5.16;100.00;99034.66;5152461;27;20094;-62
2022/05/11 01:41:07;;;;;;;11.07;5.10;;;;;;;5.12;100.00;99041.84;5152316;27;20049;-62
2022/05/11 01:43:36;;;;;;;15.07;5.80;;;;;;;5.10;100.00;99046.84;5152310;27;20414;-63
2022/05/11 01:46:03;;;;;;;12.82;6.07;;;;;;;5.11;100.00;99044.91;5152682;27;20050;-63
2022/05/11 01:48:29;;;;;;;14.73;5.68;;;;;;;5.09;100.00;99037.06;5152214;27;20062;-62
2022/05/11 01:50:56;;;;;;;17.23;5.80;;;;;;;5.06;100.00;99031.50;5152598;27;20061;-62
2022/05/11 01:53:23;;;;;;;20.48;5.45;;;;;;;5.06;100.00;99042.38;5152359;27;20469;-62
2022/05/11 01:55:50;;;;;;;12.05;5.88;;;;;;;5.06;100.00;99037.72;5152570;27;20051;-62
2022/05/11 01:58:18;;;;;;;15.52;5.95;;;;;;;5.01;100.00;99043.38;5152074;27;20515;-62
2022/05/11 02:00:46;;;;;;;15.00;6.40;;;;;;;4.96;100.00;99073.44;5152474;27;20047;-62
2022/05/11 02:03:13;;;;;;;15.07;4.68;;;;;;;4.97;100.00;99066.13;5151889;27;20047;-62
2022/05/11 02:08:26;;;;;;;23.90;6.55;;;;;;;4.99;100.00;99053.78;5151102;27;20050;-62
2022/05/11 02:10:53;;;;;;;12.63;6.32;;;;;;;4.97;100.00;99064.19;5152010;27;20531;-63
2022/05/11 02:13:20;;;;;;;22.30;6.00;;;;;;;4.98;100.00;99067.69;5151988;27;20054;-62
2022/05/11 02:15:46;;;;;;;18.83;5.70;;;;;;;4.98;100.00;99090.22;5151797;27;20374;-63
2022/05/11 02:18:13;;;;;;;17.23;5.38;;;;;;;4.94;100.00;99106.38;5152249;27;20099;-63
2022/05/11 02:20:39;;;;;;;15.70;7.07;;;;;;;4.97;100.00;99144.91;5151642;27;20050;-62
2022/05/11 02:23:05;;;;;;;20.92;6.20;;;;;;;5.01;100.00;99164.84;5151961;27;20050;-62
2022/05/11 02:25:31;;;;;;;25.02;6.50;;;;;;;5.04;100.00;99170.44;5151627;27;20390;-62
2022/05/11 02:27:57;;;;;;;20.02;6.28;;;;;;;5.03;100.00;99165.31;5151748;27;20082;-63
2022/05/11 02:30:26;;;;;;;12.90;5.93;;;;;;;5.05;100.00;99179.38;5151357;27;20057;-62
2022/05/11 02:32:53;;;;;;;23.23;5.90;;;;;;;5.06;100.00;99206.19;5151446;27;20046;-62
2022/05/11 02:35:20;;;;;;;13.05;5.78;;;;;;;5.09;100.00;99221.84;5151399;27;20050;-63
2022/05/11 02:37:48;;;;;;;17.60;6.22;;;;;;;5.09;100.00;99242.81;5151361;27;20050;-62
2022/05/11 02:40:18;;;;;;;16.92;5.68;;;;;;;5.14;100.00;99251.56;5151361;27;20047;-62
2022/05/11 02:42:44;;;;;;;14.63;6.13;;;;;;;5.21;100.00;99258.44;5151463;27;20050;-62
2022/05/11 02:45:12;;;;;;;18.63;6.32;;;;;;;5.44;100.00;99270.63;5151925;27;20055;-62
2022/05/11 02:47:39;;;;;;;22.23;5.78;;;;;;;6.00;100.00;99226.91;5151421;27;20054;-62
2022/05/11 02:50:08;;;;;;;24.15;5.93;;;;;;;6.66;100.00;99117.16;5151579;27;20054;-62
2022/05/11 02:52:35;;;;;;;15.02;5.85;;;;;;;7.27;100.00;98916.16;5151311;27;20085;-62
2022/05/11 02:55:01;;;;;;;12.90;5.38;;;;;;;7.78;100.00;98697.97;5151425;27;20047;-62
2022/05/11 02:57:27;;;;;;;11.82;5.05;;;;;;;8.22;100.00;98536.59;5151025;27;20051;-63
2022/05/11 02:59:53;;;;;;;23.77;7.38;;;;;;;8.67;100.00;98401.13;5151120;27;20091;-62
2022/05/11 03:02:20;;;;;;;25.33;7.75;;;;;;;9.11;100.00;98304.00;5151517;27;20050;-62
2022/05/11 03:04:47;;;;;;;31.00;7.50;;;;;;;9.47;100.00;98261.34;5151295;27;20101;-62
2022/05/11 03:07:13;;;;;;;19.85;6.68;;;;;;;9.80;100.00;98238.50;5151504;27;20046;-62
2022/05/11 03:09:40;;;;;;;18.58;6.63;;;;;;;10.22;100.00;98241.81;5150986;27;20046;-62
2022/05/11 03:12:07;;;;;;;14.77;6.60;;;;;;;10.61;100.00;98252.97;5151505;27;20043;-63
2022/05/11 03:14:33;;;;;;;18.75;6.90;;;;;;;10.64;100.00;98278.81;5151154;27;20046;-62
2022/05/11 03:17:00;;;;;;;18.75;6.07;;;;;;;10.83;100.00;98279.28;5151300;27;20051;-63
2022/05/11 03:19:26;;;;;;;18.60;6.93;;;;;;;11.15;100.00;98288.72;5150808;27;20054;-63
2022/05/11 03:21:53;;;;;;;24.95;7.57;;;;;;;11.45;100.00;98322.06;5153436;27;20524;-62
2022/05/11 03:24:19;;;;;;;26.02;8.02;;;;;;;11.50;100.00;98332.69;5154421;27;20051;-62
2022/05/11 03:26:45;;;;;;;28.10;7.25;;;;;;;11.76;100.00;98347.19;5154520;27;20421;-62
2022/05/11 03:29:12;;;;;;;23.90;8.10;;;;;;;12.14;100.00;98367.59;5154330;27;20052;-62
2022/05/11 03:31:39;;;;;;;19.98;6.65;;;;;;;12.42;100.00;98402.50;5154328;27;20058;-63
2022/05/11 03:36:51;;;;;;;23.60;9.95;;;;;;;13.25;100.00;98458.06;5154230;27;20092;-63
2022/05/11 03:39:18;;;;;;;18.27;7.97;;;;;;;13.57;100.00;98481.94;5154671;27;20084;-62
2022/05/11 03:41:45;;;;;;;23.25;7.55;;;;;;;13.85;100.00;98509.31;5154184;27;20057;-62
2022/05/11 03:44:12;;;;;;;23.17;8.60;;;;;;;14.19;100.00;98535.47;5154536;27;20481;-63
2022/05/11 03:46:39;;;;;;;24.48;7.43;;;;;;;14.51;100.00;98555.34;5154068;27;20072;-63
2022/05/11 03:49:05;;;;;;;19.30;7.63;;;;;;;14.77;100.00;98555.94;5154251;27;20049;-63
2022/05/11 03:51:32;;;;;;;20.27;7.60;;;;;;;15.05;100.00;98568.69;5153871;27;20053;-63
2022/05/11 03:53:58;;;;;;;24.92;8.00;;;;;;;15.13;100.00;98588.72;5154102;27;20046;-62
2022/05/11 03:56:25;;;;;;;21.27;8.60;;;;;;;15.23;100.00;98579.56;5154064;27;20043;-63
2022/05/11 03:58:51;;;;;;;15.50;7.68;;;;;;;15.33;100.00;98589.72;5153714;27;20099;-63
2022/05/11 04:01:17;;;;;;;20.13;6.72;;;;;;;15.46;100.00;98589.94;5153898;27;20053;-63
2022/05/11 04:03:45;;;;;;;22.52;7.55;;;;;;;15.47;100.00;98583.25;5153774;27;20059;-62
2022/05/11 04:06:12;;;;;;;18.40;10.00;;;;;;;15.46;100.00;98579.72;5153983;27;20054;-63
2022/05/11 04:08:38;;;;;;;15.52;6.65;;;;;;;15.83;100.00;98580.88;5153636;27;20103;-62
2022/05/11 04:11:05;;;;;;;13.40;9.43;;;;;;;16.06;100.00;98576.63;5154035;27;20508;-62
2022/05/11 04:13:31;;;;;;;20.52;7.30;;;;;;;16.35;100.00;98588.06;5153605;27;20097;-63
2022/05/11 04:15:58;;;;;;;16.80;6.95;;;;;;;16.69;100.00;98599.00;5153987;27;20112;-63
2022/05/11 04:18:24;;;;;;;10.82;6.50;;;;;;;17.07;100.00;98605.13;5153640;27;20061;-63
2022/05/11 04:20:50;;;;;;;26.83;7.50;;;;;;;17.49;100.00;98618.63;5153602;27;20051;-62
2022/05/11 04:23:17;;;;;;;16.05;9.07;;;;;;;17.78;100.00;98636.31;5153548;27;20494;-62
2022/05/11 04:25:43;;;;;;;17.08;9.63;;;;;;;18.12;100.00;98660.19;5153311;27;20137;-63
2022/05/11 04:28:11;;;;;;;16.52;9.32;;;;;;;18.63;100.00;98671.00;5153459;27;20436;-62
2022/05/11 04:30:39;;;;;;;18.98;7.75;;;;;;;18.90;100.00;98691.03;5153471;27;20042;-62
2022/05/11 04:33:06;;;;;;;28.00;10.15;;;;;;;19.32;100.00;98698.75;5152884;27;20047;-62
2022/05/11 04:35:32;;;;;;;32.80;9.77;;;;;;;19.79;100.00;98709.47;5153160;27;20053;-62
2022/05/11 04:37:58;;;;;;;33.78;10.45;;;;;;;20.22;100.00;98723.78;5153697;27;20245;-62
2022/05/11 04:40:25;;;;;;;48.20;11.38;;;;;;;20.67;100.00;98734.06;5152954;27;20091;-62
2022/05/11 04:42:51;;;;;;;36.70;8.75;;;;;;;21.10;100.00;98770.97;5153275;27;20053;-62
2022/05/11 04:45:17;;;;;;;22.63;6.30;;;;;;;21.36;100.00;98782.94;5152889;27;20059;-62
2022/05/11 04:47:45;;;;;;;21.67;8.38;;;;;;;21.25;100.00;98793.59;5153249;27;20047;-63
2022/05/11 04:50:13;;;;;;;19.80;8.68;;;;;;;20.64;100.00;98784.28;5153099;27;20162;-62
2022/05/11 04:52:39;;;;;;;12.40;6.43;;;;;;;20.44;100.00;98804.69;5152823;27;20509;-63
2022/05/11 04:55:09;;;;;;;14.75;7.28;;;;;;;19.69;100.00;98783.63;5152797;27;20047;-62
2022/05/11 04:57:36;;;;;;;15.13;6.72;;;;;;;19.66;100.00;98774.19;5152987;27;20043;-62
2022/05/11 05:00:05;;;;;;;15.15;7.10;;;;;;;19.77;100.00;98775.91;5153042;27;20058;-62
2022/05/11 05:02:31;;;;;;;13.38;6.45;;;;;;;19.66;100.00;98785.31;5152642;27;20047;-62
2022/05/11 05:05:00;;;;;;;9.40;5.28;;;;;;;19.72;100.00;98808.56;5152985;27;20140;-62
2022/05/11 05:07:26;;;;;;;14.00;5.25;;;;;;;19.98;100.00;98798.38;5152496;27;20053;-62
2022/05/11 05:09:52;;;;;;;12.27;5.28;;;;;;;20.11;100.00;98795.66;5152561;27;20051;-62
2022/05/11 05:12:19;;;;;;;15.20;6.03;;;;;;;20.35;100.00;98812.13;5152459;27;20058;-65
2022/05/11 05:14:45;;;;;;;13.82;4.97;;;;;;;20.59;100.00;98807.91;5152710;27;20043;-63
2022/05/11 05:17:13;;;;;;;17.80;5.70;;;;;;;21.12;100.00;98816.66;5152665;27;20054;-63
2022/05/11 05:19:41;;;;;;;13.45;5.25;;;;;;;21.59;98.76;98818.03;5152296;27;20055;-72
2022/05/11 05:22:08;;;;;;;12.07;6.13;;;;;;;21.96;100.00;98818.41;5152488;27;20046;-65
2022/05/11 05:24:35;;;;;;;9.68;5.25;;;;;;;22.43;93.42;98832.38;5152404;27;20050;-67
2022/05/11 05:27:02;;;;;;;10.50;4.72;;;;;;;22.75;93.11;98828.38;5152370;27;20054;-68
2022/05/11 05:32:14;;;;;;;18.33;5.70;;;;;;;22.19;91.27;98826.44;5152697;27;20504;-69
2022/05/11 05:34:43;;;;;;;11.43;5.40;;;;;;;21.86;94.47;98817.56;5152096;27;20057;-63
2022/05/11 05:37:12;;;;;;;14.02;7.75;;;;;;;21.68;100.00;98790.25;5152209;27;20046;-64
2022/05/11 05:39:38;;;;;;;14.95;5.18;;;;;;;21.56;96.35;98805.78;5151805;27;20072;-67
2022/05/11 05:42:05;;;;;;;20.45;5.30;;;;;;;21.70;94.97;98817.69;5152001;27;20051;-67
2022/05/11 05:44:32;;;;;;;11.48;4.75;;;;;;;21.90;93.76;98812.63;5150587;27;20047;-54
2022/05/11 05:47:04;;;;;;;12.65;5.63;;;;;;;22.23;94.75;98821.50;5151744;27;20054;-57
2022/05/11 05:49:30;;;;;;;9.93;5.45;;;;;;;22.67;90.83;98817.94;5151439;27;20046;-52
2022/05/11 05:51:57;;;;;;;16.83;7.35;;;;;;;22.71;90.92;98821.38;5151818;27;20051;-56
2022/05/11 05:54:25;;;;;;;14.10;4.40;;;;;;;22.54;90.28;98834.75;5151749;27;20102;-58
2022/05/11 05:56:51;;;;;;;19.75;4.57;;;;;;;22.44;90.16;98824.75;5151654;27;20054;-54
2022/05/11 05:59:18;;;;;;;20.10;5.72;;;;;;;22.48;90.71;98831.00;5151724;27;20051;-54
2022/05/11 06:01:44;;;;;;;17.13;4.78;;;;;;;22.61;89.84;98830.94;5151718;27;20446;-57
2022/05/11 06:04:10;;;;;;;29.55;5.88;;;;;;;22.66;89.20;98822.75;5151681;27;20058;-56
2022/05/11 06:06:36;;;;;;;39.63;5.97;;;;;;;22.59;89.23;98827.81;5150935;27;20042;-55
2022/05/11 06:09:04;;;;;;;24.27;4.20;;;;;;;22.46;88.71;98833.44;5151540;27;20497;-50
2022/05/11 06:11:31;;;;;;;48.13;7.05;;;;;;;22.51;90.47;98830.09;5151246;27;20528;-56
2022/05/11 06:13:59;;;;;;;17.48;7.53;;;;;;;22.58;88.22;98829.81;5151669;27;20046;-63
2022/05/11 06:16:25;;;;;;;11.45;3.50;;;;;;;22.68;83.04;98839.06;5151542;27;20640;-62
2022/05/11 06:18:53;;;;;;;11.75;3.90;;;;;;;22.90;83.87;98828.66;5151519;27;20051;-64
2022/05/11 06:21:20;;;;;;;21.25;4.07;;;;;;;23.02;82.26;98827.81;5151430;27;20042;-60
2022/05/11 06:23:47;;;;;;;14.05;3.67;;;;;;;23.40;82.04;98823.94;5151477;27;20058;-64
2022/05/11 06:26:13;;;;;;;16.30;3.75;;;;;;;23.87;81.03;98822.88;5151260;27;20051;-57
2022/05/11 06:28:41;;;;;;;13.68;2.88;;;;;;;24.34;80.05;98824.47;5151311;27;20051;-63
2022/05/11 06:31:08;;;;;;;11.95;3.20;;;;;;;24.74;78.42;98823.53;5151129;27;20051;-56
2022/05/11 06:33:35;;;;;;;11.30;2.78;;;;;;;25.18;74.67;98842.00;5151579;27;20046;-60
2022/05/11 06:36:02;;;;;;;16.45;3.03;;;;;;;25.44;74.55;98839.56;5151407;27;20047;-56
2022/05/11 06:38:29;;;;;;;10.27;2.90;;;;;;;25.65;73.79;98829.31;5151294;27;20437;-59
2022/05/11 06:40:55;;;;;;;10.73;3.42;;;;;;;24.88;74.71;98831.28;5151159;27;20046;-57
2022/05/11 06:43:21;;;;;;;8.57;2.72;;;;;;;24.08;75.64;98826.00;5151001;27;20460;-58
2022/05/11 06:45:48;;;;;;;11.02;3.25;;;;;;;23.89;79.22;98831.59;5151099;27;20050;-59
2022/05/11 06:48:14;;;;;;;11.75;3.45;;;;;;;24.44;78.68;98821.69;5151053;27;20051;-65
2022/05/11 06:50:41;;;;;;;10.48;2.63;;;;;;;25.25;73.71;98822.78;5150785;27;20047;-66
2022/05/11 06:53:10;;;;;;;15.48;3.75;;;;;;;25.78;73.08;98830.63;5150682;27;20047;-64
2022/05/11 07:01:09;;;;;;;10.40;3.13;;;;;;;26.36;71.32;98839.81;5154880;27;20470;-65
2022/05/11 07:03:35;;;;;;;13.82;3.55;;;;;;;25.92;72.87;98839.63;5154838;27;20059;-65
2022/05/11 07:06:01;;;;;;;7.68;3.40;;;;;;;25.37;73.80;98835.06;5154358;27;20086;-65
2022/05/11 07:08:34;;;;;;;7.45;2.55;;;;;;;25.37;73.82;98820.25;5154884;27;20390;-65
2022/05/11 07:13:45;;;;;;;8.40;2.80;;;;;;;26.34;70.74;98825.44;5154760;27;20093;-65
2022/05/11 07:16:12;;;;;;;7.47;2.67;;;;;;;26.61;69.63;98821.66;5154247;27;20098;-65
2022/05/11 07:18:39;;;;;;;8.52;2.38;;;;;;;26.49;69.95;98819.88;5154193;27;20050;-65
2022/05/11 07:21:05;;;;;;;12.40;6.82;;;;;;;26.64;71.00;98819.91;5154496;27;20046;-65
2022/05/11 07:23:32;;;;;;;15.00;3.75;;;;;;;26.81;70.17;98817.41;5154451;27;20410;-65
2022/05/11 07:25:58;;;;;;;4.95;2.38;;;;;;;26.99;70.10;98803.94;5154486;27;20057;-66
2022/05/11 07:28:25;;;;;;;8.15;2.22;;;;;;;27.03;70.28;98802.97;5154206;27;20053;-65
2022/05/11 07:30:51;;;;;;;18.25;5.30;;;;;;;27.32;74.33;98785.25;5154411;27;20046;-61
2022/05/11 07:33:18;;;;;;;31.52;6.07;;;;;;;27.24;73.67;98782.09;5154010;27;20050;-59
2022/05/11 07:35:45;;;;;;;26.73;6.80;;;;;;;27.25;74.82;98774.41;5154255;27;20501;-62
2022/05/11 07:38:17;;;;;;;21.38;5.80;;;;;;;26.96;75.63;98773.19;5154031;27;20425;-65
2022/05/11 07:40:45;;;;;;;24.05;6.18;;;;;;;26.86;74.46;98766.13;5154237;27;20470;-65
2022/05/11 07:43:11;;;;;;;7.68;2.40;;;;;;;26.78;70.02;98779.75;5153934;27;20417;-65
2022/05/11 07:45:39;;;;;;;8.52;3.63;;;;;;;26.80;70.81;98768.81;5153870;27;20061;-65
2022/05/11 07:48:07;;;;;;;7.97;3.08;;;;;;;26.76;69.85;98773.88;5153690;27;20046;-58
2022/05/11 07:50:35;;;;;;;19.70;5.20;;;;;;;26.83;71.62;98764.28;5153928;27;20565;-65
2022/05/11 07:53:01;;;;;;;37.10;7.85;;;;;;;26.93;72.93;98765.72;5153987;27;20047;-61
2022/05/11 07:55:28;;;;;;;14.02;4.38;;;;;;;26.99;71.53;98750.47;5153913;27;20097;-63
2022/05/11 08:00:39;;;;;;;30.60;5.75;;;;;;;28.11;73.54;98745.63;5153670;27;20046;-60
2022/05/11 08:03:05;;;;;;;10.25;3.13;;;;;;;28.30;68.96;98746.09;5153899;27;20046;-61
2022/05/11 08:05:32;;;;;;;13.32;4.97;;;;;;;28.54;69.47;98748.66;5153128;27;20062;-60
2022/05/11 08:08:02;;;;;;;10.13;3.83;;;;;;;28.41;67.96;98753.91;5152624;27;20099;-61
2022/05/11 08:10:31;;;;;;;10.77;3.90;;;;;;;28.44;67.58;98752.16;5151843;27;20073;-60
2022/05/11 08:12:58;;;;;;;26.27;4.47;;;;;;;28.73;68.74;98746.28;5132781;28;20175;-58
2022/05/11 08:15:27;;;;;;;16.77;5.20;;;;;;;28.99;67.43;98734.97;5132953;28;20418;-60
2022/05/11 08:17:54;;;;;;;40.00;5.30;;;;;;;29.24;67.23;98733.34;5132691;28;20051;-60
2022/05/11 08:20:22;;;;;;;30.23;8.88;;;;;;;29.16;68.22;98734.31;5132741;28;20047;-62
2022/05/11 08:22:49;;;;;;;18.55;3.55;;;;;;;29.24;66.71;98739.00;5132752;28;20047;-59
2022/05/11 08:25:20;;;;;;;15.02;4.10;;;;;;;29.41;67.90;98732.69;5132895;28;20047;-63
2022/05/11 08:27:48;;;;;;;8.57;3.55;;;;;;;29.52;67.43;98738.38;5132482;28;20521;-61
2022/05/11 08:35:45;;;;;;;11.77;3.10;;;;;;;28.68;66.86;98724.44;5153115;27;20076;-64
2022/05/11 08:38:12;;;;;;;8.43;3.05;;;;;;;28.45;66.84;98717.81;5152999;27;20047;-63
2022/05/11 08:40:49;;;;;;;8.70;3.45;;;;;;;28.46;68.86;98708.09;5153140;27;20058;-53
2022/05/11 08:43:17;;;;;;;10.82;3.50;;;;;;;28.33;67.61;98710.50;5153290;27;20056;-56
2022/05/11 08:45:48;;;;;;;10.23;3.47;;;;;;;28.36;70.63;98710.28;5152788;27;20065;-54
2022/05/11 08:48:23;;;;;;;12.50;3.72;;;;;;;28.50;68.87;98708.66;5153375;27;20055;-55
2022/05/11 08:50:50;;;;;;;7.95;3.17;;;;;;;28.31;67.78;98713.03;5152785;27;20042;-53
2022/05/11 08:53:34;;;;;;;8.88;3.78;;;;;;;28.11;67.96;98703.38;5153196;27;20047;-55
2022/05/11 08:56:04;;;;;;;;;;;;;;;28.07;68.95;98710.50;5153485;27;20079;-52
2022/05/11 08:58:36;;;;;;;10.50;4.13;;;;;;;28.19;69.92;98705.75;5152768;27;20454;-53
2022/05/11 09:01:05;;;;;;;20.27;4.50;;;;;;;28.69;76.33;98688.53;5152934;27;20047;-62
2022/05/11 09:03:34;;;;;;;18.88;4.78;;;;;;;28.71;75.52;98688.81;5152899;27;20206;-58
2022/05/11 09:06:02;;;;;;;17.02;4.95;;;;;;;29.02;76.28;98671.09;5152822;27;20050;-67
2022/05/11 09:08:33;;;;;;;12.70;5.30;;;;;;;28.77;77.59;98673.50;5152578;27;20057;-64
2022/05/11 09:10:59;;;;;;;12.98;4.07;;;;;;;28.59;71.09;98683.09;5152626;27;20054;-69
2022/05/11 09:13:27;;;;;;;13.63;4.55;;;;;;;28.44;72.31;98692.97;5152527;27;20050;-67
2022/05/11 09:16:00;;;;;;;13.65;4.55;;;;;;;28.65;77.09;98669.03;5152464;27;20096;-69
2022/05/11 09:18:42;;;;;;;12.75;5.28;;;;;;;28.63;76.46;98665.94;5152568;27;20138;-63
2022/05/11 09:21:24;;;;;;;10.40;4.57;;;;;;;28.17;74.95;98663.97;5152436;27;20509;-64
2022/05/11 09:24:01;;;;;;;15.80;5.40;;;;;;;28.05;77.36;98656.69;5152999;27;20847;-56
2022/05/11 09:26:33;;;;;;;16.45;4.88;;;;;;;27.81;76.79;98657.72;5152198;27;20050;-67
2022/05/11 09:29:16;;;;;;;13.40;4.72;;;;;;;27.68;76.86;98654.47;5152560;27;20046;-66
2022/05/11 09:31:43;;;;;;;14.95;4.80;;;;;;;27.72;75.83;98655.00;5152192;27;20186;-59
2022/05/11 09:34:14;;;;;;;7.80;4.43;;;;;;;27.60;76.30;98656.16;5152255;27;20083;-64
2022/05/11 09:36:42;;;;;;;20.35;5.55;;;;;;;27.82;76.41;98652.84;5152105;27;20086;-69
2022/05/11 09:39:13;;;;;;;6.35;3.63;;;;;;;27.63;71.21;98658.75;5152132;27;20042;-71
2022/05/11 09:41:41;;;;;;;12.35;4.50;;;;;;;27.56;75.42;98649.97;5152587;27;20062;-65
2022/05/11 09:44:19;;;;;;;8.10;3.63;;;;;;;27.30;71.34;98655.53;5152279;27;20047;-66
2022/05/11 09:46:45;;;;;;;15.77;4.45;;;;;;;27.09;75.85;98646.25;5152390;27;20050;-65
2022/05/11 09:49:25;;;;;;;10.38;3.88;;;;;;;26.74;76.37;98636.56;5152027;27;20051;-64
2022/05/11 09:51:55;;;;;;;12.98;4.35;;;;;;;26.21;76.79;98637.47;5151960;27;20047;-64
2022/05/11 09:54:28;;;;;;;9.25;4.18;;;;;;;25.81;77.70;98633.16;5151941;27;20433;-65
2022/05/11 09:56:58;;;;;;;6.78;4.00;;;;;;;25.81;77.75;98633.16;5152042;27;20051;-69
2022/05/11 09:59:28;;;;;;;10.98;3.95;;;;;;;25.88;76.46;98625.63;5151952;27;20054;-69
2022/05/11 10:02:04;;;;;;;8.85;3.50;;;;;;;25.87;70.03;98644.50;5151863;27;20470;-70
2022/05/11 10:04:36;;;;;;;7.57;3.25;;;;;;;26.17;70.38;98636.88;5151633;27;20053;-70
2022/05/11 10:07:06;;;;;;;7.57;3.65;;;;;;;26.43;68.27;98630.69;5151541;27;20047;-70
2022/05/11 10:09:35;;;;;;;4.90;3.33;;;;;;;26.40;76.25;98609.94;5151601;27;20080;-63
2022/05/11 10:12:03;;;;;;;5.95;3.10;;;;;;;25.97;70.70;98622.75;5151711;27;20050;-65
2022/05/11 10:23:02;;;;;;;10.27;4.32;;;;;;;26.41;66.74;98621.94;5151856;27;20050;-64
2022/05/11 10:25:35;;;;;;;8.98;3.78;;;;;;;26.46;68.82;98610.03;5151481;27;20058;-65
2022/05/11 10:28:14;;;;;;;5.68;2.40;;;;;;;26.13;64.93;98615.88;5151290;27;20058;-66
2022/05/11 10:30:50;;;;;;;11.50;3.83;;;;;;;25.64;76.01;98587.13;5151274;27;20081;-63
2022/05/11 10:33:47;;;;;;;9.45;3.53;;;;;;;25.34;80.48;98578.66;5151321;27;20054;-67
2022/05/11 10:36:20;;;;;;;11.23;3.83;;;;;;;25.15;81.00;98577.25;5151229;27;20079;-66
2022/05/11 10:39:02;;;;;;;6.67;3.60;;;;;;;25.13;80.45;98570.59;5151136;27;20050;-65
2022/05/11 10:41:32;;;;;;;7.72;4.00;;;;;;;25.00;80.83;98563.16;5150926;27;20050;-64
2022/05/11 10:44:05;;;;;;;7.32;4.20;;;;;;;25.06;82.75;98554.88;5151682;27;20072;-66
2022/05/11 10:46:36;;;;;;;7.28;3.70;;;;;;;25.09;77.51;98565.91;5150983;27;20053;-63
2022/05/11 10:49:21;;;;;;;11.13;3.55;;;;;;;25.05;76.22;98570.88;5151364;27;20058;-71
2022/05/11 10:52:00;;;;;;;8.00;4.38;;;;;;;25.01;79.46;98567.50;5150642;27;20502;-67
2022/05/11 10:54:35;;;;;;;9.50;5.50;;;;;;;25.02;83.00;98549.41;5151275;27;20050;-67
2022/05/11 10:57:09;;;;;;;12.68;6.38;;;;;;;24.54;84.22;98541.00;5150975;27;20047;-69
2022/05/11 10:59:56;;;;;;;16.27;6.85;;;;;;;24.11;84.65;98533.84;5132268;27;20081;-69
2022/05/11 11:02:56;;;;;;;18.85;7.18;;;;;;;23.64;87.81;98515.59;5151071;27;20095;-66
2022/05/11 11:05:28;;;;;;;11.13;6.05;;;;;;;23.69;91.65;98501.00;5150606;27;20050;-69
2022/05/11 11:08:07;;;;;;;7.65;4.10;;;;;;;23.49;82.33;98516.25;5151211;27;20497;-66
2022/05/11 11:10:39;;;;;;;12.85;5.18;;;;;;;23.09;84.51;98524.81;5151110;27;20050;-69
2022/05/11 11:13:38;;;;;;;13.80;3.03;;;;;;;22.85;84.91;98524.59;5150521;27;20046;-67
2022/05/11 11:16:07;;;;;;;7.32;3.10;;;;;;;22.82;78.19;98528.31;5151181;27;20050;-68
2022/05/11 11:18:37;;;;;;;11.20;3.67;;;;;;;22.95;79.63;98517.03;5150723;27;20047;-69
2022/05/11 11:21:08;;;;;;;14.55;3.90;;;;;;;23.00;78.20;98522.78;5151108;27;20046;-67
2022/05/11 11:23:38;;;;;;;8.65;3.90;;;;;;;23.01;78.88;98521.53;5150782;27;20457;-69
2022/05/11 11:26:07;;;;;;;7.72;3.10;;;;;;;22.87;78.93;98524.16;5150599;27;20519;-67
2022/05/11 11:29:18;;;;;;;7.78;4.10;;;;;;;22.69;78.07;98522.88;5150589;27;20077;-68
2022/05/11 11:32:11;;;;;;;15.30;3.67;;;;;;;22.72;79.99;98521.16;5150573;27;20050;-68
2022/05/11 11:34:39;;;;;;;3.10;2.15;;;;;;;22.78;78.65;98522.88;5150487;27;20103;-67
2022/05/11 11:37:38;;;;;;;8.05;2.75;;;;;;;22.23;77.47;98527.56;5150946;27;20062;-68
2022/05/11 11:40:26;;;;;;;6.88;2.58;;;;;;;21.85;78.43;98509.03;5150435;27;20054;-67
2022/05/11 11:42:52;;;;;;;6.80;2.60;;;;;;;21.76;81.68;98497.81;5152858;27;20134;-68
2022/05/11 11:45:59;;;;;;;7.10;2.20;;;;;;;21.83;80.96;98492.00;5153791;27;20501;-68
2022/05/11 11:48:26;;;;;;;6.85;3.20;;;;;;;21.96;79.51;98492.69;5049815;28;20075;-68
2022/05/11 11:50:55;;;;;;;4.88;2.53;;;;;;;21.92;80.10;98494.03;5137345;27;20043;-67
2022/05/11 11:53:24;;;;;;;6.40;3.28;;;;;;;22.05;78.28;98505.88;5153864;27;20047;-67
2022/05/11 11:55:51;;;;;;;5.95;2.20;;;;;;;22.10;78.34;98494.13;5153845;27;20058;-69
2022/05/11 11:58:25;;;;;;;6.40;2.30;;;;;;;22.01;79.82;98494.88;5153764;27;20078;-68
2022/05/11 12:01:06;;;;;;;4.75;2.15;;;;;;;22.06;76.60;98501.88;5154013;27;20429;-68
2022/05/11 12:03:37;;;;;;;9.45;3.15;;;;;;;22.33;77.37;98497.66;5153527;27;20100;-68
2022/05/11 12:17:26;;;;;;;6.25;3.10;;;;;;;23.18;77.39;98480.06;5153490;27;20050;-67
2022/05/11 12:19:59;;;;;;;4.75;2.40;;;;;;;23.08;74.19;98491.72;5154019;27;20552;-68
2022/05/11 12:22:25;;;;;;;11.93;2.97;;;;;;;22.89;75.91;98488.13;5153321;27;20051;-68
2022/05/11 12:25:02;;;;;;;8.13;4.13;;;;;;;22.89;76.81;98486.13;5153372;27;20067;-68